createdAt,value
2023-04-24T00:02:12.116Z,90.27
2023-04-24T00:07:15.376Z,90.13
2023-04-24T00:12:17.198Z,89.69
2023-04-24T00:17:20.937Z,89.76
2023-04-24T00:22:23.124Z,89.42
2023-04-24T00:27:24.922Z,89.07
2023-04-24T00:32:27.079Z,88.83
2023-04-24T00:37:30.738Z,88.70
2023-04-24T00:42:32.429Z,88.35
2023-04-24T00:47:34.563Z,88.42
2023-04-24T00:52:37.003Z,88.39
2023-04-24T00:57:39.034Z,88.12
2023-04-24T01:02:45.041Z,88.40
2023-04-24T01:07:49.923Z,88.06
2023-04-24T01:12:52.705Z,88.11
2023-04-24T01:17:54.365Z,88.22
2023-04-24T01:22:57.478Z,88.14
2023-04-24T01:27:59.433Z,87.94
2023-04-24T01:33:01.404Z,87.85
2023-04-24T01:38:03.263Z,87.67
2023-04-24T01:43:04.896Z,87.56
2023-04-24T01:48:06.951Z,87.53
2023-04-24T01:53:08.649Z,87.41
2023-04-24T01:58:11.612Z,87.06
2023-04-24T02:03:13.403Z,87.01
2023-04-24T02:08:15.097Z,86.97
2023-04-24T02:13:16.684Z,87.04
2023-04-24T02:18:20.793Z,86.63
2023-04-24T02:23:22.458Z,86.73
2023-04-24T02:28:24.082Z,86.38
2023-04-24T02:33:25.836Z,86.35
2023-04-24T02:38:27.535Z,86.60
2023-04-24T02:43:29.139Z,86.49
2023-04-24T02:48:31.004Z,86.53
2023-04-24T02:53:32.679Z,86.33
2023-04-24T02:58:34.904Z,86.29
2023-04-24T03:03:37.048Z,86.31
2023-04-24T03:08:39.323Z,86.08
2023-04-24T03:13:41.031Z,85.99
2023-04-24T03:18:42.821Z,86.11
2023-04-24T03:23:45.410Z,86.00
2023-04-24T03:28:47.503Z,86.08
2023-04-24T03:33:49.334Z,85.73
2023-04-24T03:38:51.263Z,85.69
2023-04-24T03:43:58.142Z,85.30
2023-04-24T03:49:01.406Z,85.76
2023-04-24T03:54:07.818Z,85.68
2023-04-24T03:59:12.886Z,85.60
2023-04-24T04:04:16.431Z,85.62
2023-04-24T04:09:19.816Z,85.62
2023-04-24T04:14:22.206Z,85.79
2023-04-24T04:19:23.955Z,85.84
2023-04-24T04:24:27.468Z,85.79
2023-04-24T04:29:29.573Z,85.50
2023-04-24T04:34:32.363Z,85.55
2023-04-24T04:39:34.759Z,85.71
2023-04-24T04:44:51.403Z,85.79
2023-04-24T04:49:57.160Z,85.89
2023-04-24T04:55:02.202Z,85.92
2023-04-24T05:00:26.379Z,86.00
2023-04-24T05:05:29.248Z,86.26
2023-04-24T05:10:31.609Z,86.20
2023-04-24T05:15:33.463Z,86.36
2023-04-24T05:20:36.752Z,86.66
2023-04-24T05:25:41.113Z,86.17
2023-04-24T05:30:46.437Z,85.53
2023-04-24T05:35:49.647Z,85.22
2023-04-24T05:40:52.286Z,85.17
2023-04-24T05:45:54.578Z,84.83
2023-04-24T05:50:56.177Z,84.81
2023-04-24T05:55:59.724Z,84.59
2023-04-24T06:01:02.779Z,84.54
2023-04-24T06:06:05.008Z,84.46
2023-04-24T06:11:08.408Z,84.25
2023-04-24T06:16:11.390Z,84.38
2023-04-24T06:21:17.314Z,84.55
2023-04-24T06:26:20.061Z,84.25
2023-04-24T06:31:22.141Z,84.45
2023-04-24T06:36:23.865Z,84.67
2023-04-24T06:41:25.977Z,84.40
2023-04-24T06:46:28.788Z,83.93
2023-04-24T06:51:31.558Z,84.15
2023-04-24T06:56:35.160Z,83.96
2023-04-24T07:01:36.928Z,83.44
2023-04-24T07:06:38.786Z,83.64
2023-04-24T07:11:41.650Z,83.67
2023-04-24T07:16:43.678Z,82.64
2023-04-24T07:21:46.314Z,82.79
2023-04-24T07:26:47.915Z,82.31
2023-04-24T07:31:49.734Z,82.20
2023-04-24T07:36:51.487Z,81.85
2023-04-24T07:41:53.079Z,82.36
2023-04-24T07:46:54.971Z,83.04
2023-04-24T07:51:56.887Z,82.45
2023-04-24T07:56:58.534Z,81.78
2023-04-24T08:02:01.844Z,76.56
2023-04-24T08:07:03.581Z,80.66
2023-04-24T08:12:05.316Z,80.68
2023-04-24T08:17:08.771Z,80.68
2023-04-24T08:22:11.502Z,80.73
2023-04-24T08:27:13.154Z,80.89
2023-04-24T08:32:15.152Z,81.40
2023-04-24T08:37:16.872Z,81.39
2023-04-24T08:42:19.096Z,81.37
2023-04-24T08:47:21.341Z,81.85
2023-04-24T08:52:23.671Z,81.16
2023-04-24T08:57:25.867Z,79.14
2023-04-24T09:02:27.799Z,80.82
2023-04-24T09:07:31.327Z,77.33
2023-04-24T09:12:33.738Z,78.07
2023-04-24T09:17:36.483Z,76.16
2023-04-24T09:22:38.236Z,75.36
2023-04-24T09:27:46.413Z,73.67
2023-04-24T09:32:48.297Z,73.29
2023-04-24T09:37:50.301Z,70.74
2023-04-24T09:42:56.559Z,70.36
2023-04-24T09:47:58.259Z,70.62
2023-04-24T09:53:02.232Z,69.89
2023-04-24T09:58:06.198Z,69.35
2023-04-24T10:03:09.134Z,68.69
2023-04-24T10:08:12.533Z,69.15
2023-04-24T10:13:16.198Z,69.02
2023-04-24T10:18:17.967Z,70.16
2023-04-24T10:23:20.345Z,68.80
2023-04-24T10:28:22.600Z,68.33
2023-04-24T10:33:25.101Z,67.47
2023-04-24T10:38:29.553Z,67.01
2023-04-24T10:43:31.289Z,71.17
2023-04-24T10:48:33.422Z,77.58
2023-04-24T10:53:36.007Z,82.41
2023-04-24T10:58:44.230Z,81.79
2023-04-24T11:03:52.006Z,80.96
2023-04-24T11:08:59.119Z,81.54
2023-04-24T11:14:01.052Z,80.73
2023-04-24T11:19:07.183Z,79.36
2023-04-24T11:24:27.941Z,78.90
2023-04-24T11:29:40.280Z,75.16
2023-04-24T11:34:41.868Z,75.77
2023-04-24T11:39:43.892Z,75.14
2023-04-24T11:44:48.486Z,73.95
2023-04-24T11:49:51.340Z,70.11
2023-04-24T11:54:52.987Z,70.39
2023-04-24T11:59:54.848Z,63.94
2023-04-24T12:04:57.198Z,59.33
2023-04-24T12:10:00.903Z,62.22
2023-04-24T12:15:07.322Z,60.26
2023-04-24T12:20:09.740Z,59.19
2023-04-24T12:25:11.705Z,56.34
2023-04-24T12:30:15.166Z,57.71
2023-04-24T12:35:21.386Z,57.84
2023-04-24T12:40:23.140Z,55.93
2023-04-24T12:45:26.387Z,54.97
2023-04-24T12:50:28.132Z,54.00
2023-04-24T12:55:29.883Z,55.55
2023-04-24T13:00:31.593Z,59.11
2023-04-24T13:05:33.296Z,57.51
2023-04-24T13:10:35.444Z,59.75
2023-04-24T13:15:37.186Z,55.63
2023-04-24T13:20:38.904Z,53.09
2023-04-24T13:25:40.577Z,54.52
2023-04-24T13:30:42.240Z,56.29
2023-04-24T13:35:44.219Z,55.10
2023-04-24T13:40:46.006Z,55.77
2023-04-24T13:45:50.681Z,54.87
2023-04-24T13:50:53.156Z,54.75
2023-04-24T13:55:54.746Z,53.90
2023-04-24T14:00:56.424Z,56.07
2023-04-24T14:05:58.640Z,55.29
2023-04-24T14:11:00.329Z,56.10
2023-04-24T14:16:02.292Z,55.60
2023-04-24T14:21:04.384Z,56.65
2023-04-24T14:26:06.231Z,55.90
2023-04-24T14:31:09.125Z,55.90
2023-04-24T14:36:11.427Z,54.70
2023-04-24T14:41:14.344Z,55.94
2023-04-24T14:46:16.635Z,55.08
2023-04-24T14:51:18.362Z,53.97
2023-04-24T14:56:20.153Z,53.85
2023-04-24T15:01:22.267Z,53.75
2023-04-24T15:06:24.153Z,54.72
2023-04-24T15:11:26.342Z,54.94
2023-04-24T15:16:28.044Z,55.20
2023-04-24T15:21:29.646Z,54.80
2023-04-24T15:26:31.493Z,56.23
2023-04-24T15:31:33.089Z,55.90
2023-04-24T15:36:34.803Z,56.21
2023-04-24T15:41:36.685Z,55.55
2023-04-24T15:46:38.399Z,56.10
2023-04-24T15:51:40.266Z,54.34
2023-04-24T15:56:41.880Z,54.53
2023-04-24T16:01:43.487Z,55.24
2023-04-24T16:06:45.227Z,55.63
2023-04-24T16:11:46.893Z,56.70
2023-04-24T16:16:48.696Z,56.22
2023-04-24T16:21:51.811Z,56.55
2023-04-24T16:26:53.447Z,57.31
2023-04-24T16:31:55.423Z,57.61
2023-04-24T16:36:57.290Z,56.73
2023-04-24T16:42:00.127Z,57.69
2023-04-24T16:47:02.561Z,57.21
2023-04-24T16:52:04.383Z,56.80
2023-04-24T16:57:07.792Z,56.05
2023-04-24T17:02:09.514Z,56.50
2023-04-24T17:07:11.753Z,57.66
2023-04-24T17:12:13.339Z,57.96
2023-04-24T17:17:15.014Z,58.84
2023-04-24T17:22:16.879Z,59.24
2023-04-24T17:27:18.656Z,58.36
2023-04-24T17:32:20.507Z,58.47
2023-04-24T17:37:23.412Z,58.70
2023-04-24T17:42:24.994Z,58.99
2023-04-24T17:47:27.322Z,58.71
2023-04-24T17:52:29.035Z,58.73
2023-04-24T17:57:30.918Z,57.65
2023-04-24T18:02:33.734Z,58.52
2023-04-24T18:07:35.705Z,58.73
2023-04-24T18:12:37.306Z,59.25
2023-04-24T18:17:38.950Z,59.29
2023-04-24T18:22:40.995Z,59.91
2023-04-24T18:27:42.652Z,60.40
2023-04-24T18:32:44.463Z,60.77
2023-04-24T18:37:46.505Z,61.01
2023-04-24T18:42:48.202Z,61.20
2023-04-24T18:47:50.331Z,61.34
2023-04-24T18:52:51.960Z,61.51
2023-04-24T18:57:53.567Z,61.81
2023-04-24T19:02:55.732Z,61.77
2023-04-24T19:07:57.506Z,61.91
2023-04-24T19:12:59.746Z,62.00
2023-04-24T19:18:01.654Z,62.11
2023-04-24T19:23:03.433Z,62.15
2023-04-24T19:28:05.559Z,62.37
2023-04-24T19:33:07.259Z,62.67
2023-04-24T19:38:09.997Z,62.85
2023-04-24T19:43:12.168Z,63.02
2023-04-24T19:48:13.844Z,63.31
2023-04-24T19:53:15.800Z,63.56
2023-04-24T19:58:20.196Z,63.79
2023-04-24T20:03:32.246Z,63.92
2023-04-24T20:08:38.722Z,63.96
2023-04-24T20:13:40.461Z,64.26
2023-04-24T20:18:42.075Z,64.83
2023-04-24T20:23:43.878Z,65.02
2023-04-24T20:28:45.438Z,65.18
2023-04-24T20:33:47.291Z,65.40
2023-04-24T20:38:49.196Z,66.10
2023-04-24T20:43:51.646Z,67.19
2023-04-24T20:48:53.274Z,67.61
2023-04-24T20:53:54.951Z,68.59
2023-04-24T20:58:57.411Z,68.37
2023-04-24T21:03:59.529Z,69.23
2023-04-24T21:09:01.170Z,69.30
2023-04-24T21:14:03.343Z,69.74
2023-04-24T21:19:05.325Z,69.80
2023-04-24T21:24:07.013Z,69.85
2023-04-24T21:29:08.865Z,70.10
2023-04-24T21:34:10.735Z,70.27
2023-04-24T21:39:12.329Z,70.23
2023-04-24T21:44:14.028Z,70.31
2023-04-24T21:49:15.880Z,70.34
2023-04-24T21:54:17.559Z,70.31
2023-04-24T21:59:19.349Z,70.50
2023-04-24T22:04:21.106Z,70.55
2023-04-24T22:09:23.452Z,71.10
2023-04-24T22:14:25.365Z,71.80
2023-04-24T22:19:28.257Z,72.06
2023-04-24T22:24:29.865Z,72.06
2023-04-24T22:29:31.888Z,72.04
2023-04-24T22:34:33.424Z,72.27
2023-04-24T22:39:35.375Z,72.05
2023-04-24T22:44:37.004Z,70.92
2023-04-24T22:49:39.748Z,70.17
2023-04-24T22:54:41.761Z,69.38
2023-04-24T22:59:44.124Z,68.86
2023-04-24T23:04:46.111Z,68.86
2023-04-24T23:09:47.746Z,68.39
2023-04-24T23:14:49.640Z,68.00
2023-04-24T23:19:51.326Z,67.81
2023-04-24T23:24:52.898Z,67.75
2023-04-24T23:29:54.945Z,67.41
2023-04-24T23:34:56.762Z,66.96
2023-04-24T23:39:58.894Z,67.28
2023-04-24T23:45:00.908Z,67.35
2023-04-24T23:50:02.519Z,67.14
2023-04-24T23:55:04.852Z,67.36
